Time;durP1;ratioP1;P1;durP2;ratioP2;P2;SDS_P1;SDS_P2;PMS_P1;PMS_P2;Temp;Humidity;BMP_temperature;BMP_pressure;BME280_temperature;BME280_humidity;BME280_pressure;Samples;Min_cycle;Max_cycle;Signal;HPM_P1;HPM_P2
2022/11/17 00:00:16;;;;;;;5.50;1.43;;;;;;;;;;511853;28;1623;-61
2022/11/17 00:00:31;;;;;;;5.78;1.50;;;;;;;;;;511005;28;1593;-61
2022/11/17 00:00:46;;;;;;;4.00;1.30;;;;;;;;;;513164;28;1076;-61
2022/11/17 00:01:06;;;;;;;5.57;1.42;;;;;;;;;;512902;28;1083;-61
2022/11/17 00:01:22;;;;;;;5.30;1.50;;;;;;;;;;509347;28;1533;-61
2022/11/17 00:01:37;;;;;;;5.38;1.55;;;;;;;;;;512112;28;1156;-61
2022/11/17 00:01:53;;;;;;;6.27;1.50;;;;;;;;;;512367;28;1210;-60
2022/11/17 00:02:08;;;;;;;6.25;1.40;;;;;;;;;;512527;28;1290;-60
2022/11/17 00:02:23;;;;;;;5.40;1.43;;;;;;;;;;511277;28;1123;-61
2022/11/17 00:02:38;;;;;;;4.85;1.42;;;;;;;;;;510822;28;1254;-61
2022/11/17 00:02:54;;;;;;;4.20;1.30;;;;;;;;;;512244;28;1086;-61
2022/11/17 00:03:14;;;;;;;4.80;1.27;;;;;;;;;;512606;28;1423;-61
2022/11/17 00:03:29;;;;;;;4.55;1.40;;;;;;;;;;510802;28;1411;-61
2022/11/17 00:03:46;;;;;;;5.17;1.43;;;;;;;;;;512091;28;1571;-61
2022/11/17 00:04:01;;;;;;;4.57;1.30;;;;;;;;;;511974;28;1435;-60
2022/11/17 00:04:16;;;;;;;2.80;1.20;;;;;;;;;;511217;28;1116;-61
2022/11/17 00:04:31;;;;;;;3.90;1.48;;;;;;;;;;512948;28;1203;-61
2022/11/17 00:04:47;;;;;;;5.90;1.50;;;;;;;;;;512053;28;1250;-61
2022/11/17 00:05:03;;;;;;;5.90;1.40;;;;;;;;;;511617;28;1144;-61
2022/11/17 00:05:18;;;;;;;4.70;1.40;;;;;;;;;;512453;28;1178;-60
2022/11/17 00:05:34;;;;;;;4.10;1.30;;;;;;;;;;513830;28;1084;-61
2022/11/17 00:05:50;;;;;;;5.18;1.30;;;;;;;;;;512035;28;1108;-61
2022/11/17 00:06:05;;;;;;;5.03;1.20;;;;;;;;;;511235;28;1198;-61
2022/11/17 00:06:21;;;;;;;3.97;1.27;;;;;;;;;;511886;28;1081;-60
2022/11/17 00:06:36;;;;;;;3.43;1.20;;;;;;;;;;509130;28;1245;-61
2022/11/17 00:06:51;;;;;;;4.07;1.27;;;;;;;;;;510616;28;1215;-61
2022/11/17 00:07:07;;;;;;;4.20;1.33;;;;;;;;;;507578;28;1172;-60
2022/11/17 00:07:22;;;;;;;4.00;1.30;;;;;;;;;;507647;28;1195;-61
2022/11/17 00:07:37;;;;;;;5.30;1.40;;;;;;;;;;506308;28;1173;-61
2022/11/17 00:07:52;;;;;;;6.55;1.40;;;;;;;;;;508476;28;1026;-61
2022/11/17 00:08:08;;;;;;;6.13;1.53;;;;;;;;;;510832;28;1149;-61
2022/11/17 00:08:23;;;;;;;6.85;1.60;;;;;;;;;;509518;28;1152;-60
2022/11/17 00:08:39;;;;;;;6.80;1.50;;;;;;;;;;511332;28;1139;-61
2022/11/17 00:08:54;;;;;;;5.90;1.42;;;;;;;;;;509567;28;1232;-61
2022/11/17 00:09:10;;;;;;;5.07;1.40;;;;;;;;;;509515;29;1328;-61
2022/11/17 00:09:26;;;;;;;3.83;1.50;;;;;;;;;;509476;29;1125;-61
2022/11/17 00:09:41;;;;;;;3.87;1.50;;;;;;;;;;509345;28;1132;-60
2022/11/17 00:09:56;;;;;;;4.40;1.40;;;;;;;;;;509310;28;1312;-61
2022/11/17 00:10:12;;;;;;;4.03;1.40;;;;;;;;;;510074;28;1637;-61
2022/11/17 00:10:27;;;;;;;4.53;1.30;;;;;;;;;;511337;28;1174;-61
2022/11/17 00:10:42;;;;;;;6.10;1.40;;;;;;;;;;512781;28;1316;-61
2022/11/17 00:11:01;;;;;;;5.20;1.40;;;;;;;;;;510437;28;1515;-61
2022/11/17 00:11:17;;;;;;;4.82;1.40;;;;;;;;;;510325;28;1123;-61
2022/11/17 00:14:31;;;;;;;4.80;1.40;;;;;;;;;;510742;28;1070;-59
2022/11/17 00:14:32;;;;;;;5.28;1.50;;;;;;;;;;513797;28;1032;-59
2022/11/17 00:14:47;;;;;;;4.82;1.35;;;;;;;;;;513932;28;1696;-59
2022/11/17 00:15:02;;;;;;;4.23;1.30;;;;;;;;;;515096;28;1265;-59
2022/11/17 00:15:18;;;;;;;4.60;1.40;;;;;;;;;;514476;28;1204;-59
2022/11/17 00:15:33;;;;;;;4.95;1.48;;;;;;;;;;513637;28;1187;-59
2022/11/17 00:15:48;;;;;;;4.83;1.60;;;;;;;;;;513458;28;1248;-59
2022/11/17 00:16:04;;;;;;;4.07;1.40;;;;;;;;;;515142;28;1095;-59
2022/11/17 00:16:20;;;;;;;4.60;1.30;;;;;;;;;;514214;28;1087;-61
2022/11/17 00:16:35;;;;;;;5.82;1.40;;;;;;;;;;514948;28;1139;-59
2022/11/17 00:16:50;;;;;;;5.53;1.50;;;;;;;;;;512328;28;1472;-60
2022/11/17 00:17:10;;;;;;;4.47;1.50;;;;;;;;;;512260;28;1531;-60
2022/11/17 00:17:26;;;;;;;5.22;1.40;;;;;;;;;;512210;28;996;-59
2022/11/17 00:17:41;;;;;;;4.53;1.40;;;;;;;;;;508249;28;1174;-60
2022/11/17 00:21:17;;;;;;;4.90;1.40;;;;;;;;;;510872;28;1244;-59
2022/11/17 00:21:25;;;;;;;5.30;1.20;;;;;;;;;;513998;28;1147;-60
2022/11/17 00:21:41;;;;;;;4.45;1.30;;;;;;;;;;514521;28;1087;-60
2022/11/17 00:21:56;;;;;;;4.82;1.38;;;;;;;;;;514575;28;1119;-60
2022/11/17 00:22:11;;;;;;;4.80;1.40;;;;;;;;;;514230;28;1229;-60
2022/11/17 00:22:29;;;;;;;6.03;1.47;;;;;;;;;;514928;28;1034;-60
2022/11/17 00:22:44;;;;;;;4.45;1.33;;;;;;;;;;512534;28;1683;-60
2022/11/17 00:22:59;;;;;;;4.80;1.33;;;;;;;;;;514393;28;1166;-59
2022/11/17 00:23:14;;;;;;;5.27;1.50;;;;;;;;;;514577;28;1176;-60
2022/11/17 00:23:45;;;;;;;4.20;1.58;;;;;;;;;;513782;28;1194;-60
2022/11/17 00:24:01;;;;;;;4.40;1.30;;;;;;;;;;513994;28;1125;-59
2022/11/17 00:24:16;;;;;;;4.20;1.35;;;;;;;;;;515188;28;1237;-59
2022/11/17 00:24:31;;;;;;;3.80;1.33;;;;;;;;;;514753;28;1371;-60
2022/11/17 00:24:47;;;;;;;3.87;1.40;;;;;;;;;;513584;28;1095;-60
2022/11/17 00:25:03;;;;;;;4.65;1.40;;;;;;;;;;513665;28;1142;-59
2022/11/17 00:25:18;;;;;;;5.73;1.53;;;;;;;;;;514842;28;1147;-59
2022/11/17 00:25:33;;;;;;;4.57;1.63;;;;;;;;;;514464;28;1218;-60
2022/11/17 00:25:49;;;;;;;4.15;1.60;;;;;;;;;;514676;28;1071;-59
2022/11/17 00:26:04;;;;;;;4.93;1.60;;;;;;;;;;512724;28;1297;-59
2022/11/17 00:26:28;;;;;;;5.45;1.60;;;;;;;;;;512538;28;1304;-60
2022/11/17 00:27:01;;;;;;;4.35;1.67;;;;;;;;;;510448;28;1128;-60
2022/11/17 00:27:17;;;;;;;4.80;1.50;;;;;;;;;;512223;28;1076;-60
2022/11/17 00:27:32;;;;;;;4.30;1.40;;;;;;;;;;511956;28;1190;-60
2022/11/17 00:27:47;;;;;;;4.70;1.50;;;;;;;;;;511582;28;1201;-60
2022/11/17 00:28:02;;;;;;;4.77;1.40;;;;;;;;;;513396;28;1207;-59
2022/11/17 00:28:18;;;;;;;4.70;1.30;;;;;;;;;;514092;28;1095;-60
2022/11/17 00:28:33;;;;;;;5.37;1.37;;;;;;;;;;515355;28;1119;-59
2022/11/17 00:28:53;;;;;;;4.77;1.40;;;;;;;;;;511166;28;1354;-60
2022/11/17 00:29:08;;;;;;;3.58;1.35;;;;;;;;;;513181;28;2193;-59
2022/11/17 00:29:23;;;;;;;4.27;1.30;;;;;;;;;;513531;28;1044;-59
2022/11/17 00:29:39;;;;;;;4.90;1.27;;;;;;;;;;509714;28;1199;-59
2022/11/17 00:29:55;;;;;;;5.20;1.40;;;;;;;;;;511212;28;1230;-60
2022/11/17 00:34:03;;;;;;;5.50;1.60;;;;;;;;;;509859;28;1396;-60
2022/11/17 00:34:21;;;;;;;4.82;1.50;;;;;;;;;;514024;28;1083;-60
2022/11/17 00:34:36;;;;;;;4.43;1.48;;;;;;;;;;514656;28;1047;-60
2022/11/17 00:34:51;;;;;;;4.43;1.42;;;;;;;;;;515745;28;1142;-60
2022/11/17 00:35:07;;;;;;;4.63;1.60;;;;;;;;;;512751;28;1253;-60
2022/11/17 00:35:22;;;;;;;4.27;1.70;;;;;;;;;;515404;28;1105;-60
2022/11/17 00:35:38;;;;;;;5.78;2.05;;;;;;;;;;515038;28;1623;-60
2022/11/17 00:35:54;;;;;;;7.13;2.10;;;;;;;;;;514900;28;1437;-60
2022/11/17 00:36:09;;;;;;;6.95;2.10;;;;;;;;;;511257;28;1491;-61
2022/11/17 00:36:25;;;;;;;8.13;2.55;;;;;;;;;;512182;28;933;-60
2022/11/17 00:36:43;;;;;;;8.27;2.50;;;;;;;;;;511294;28;1154;-60
2022/11/17 00:36:58;;;;;;;9.02;2.67;;;;;;;;;;509945;28;1394;-60
2022/11/17 00:37:15;;;;;;;9.83;3.17;;;;;;;;;;509658;28;1059;-60
2022/11/17 00:37:36;;;;;;;7.57;2.58;;;;;;;;;;508467;28;1560;-60
2022/11/17 00:38:25;;;;;;;5.30;1.90;;;;;;;;;;510689;28;1000;-61
2022/11/17 00:38:40;;;;;;;4.90;1.67;;;;;;;;;;511915;28;1329;-61
2022/11/17 00:38:56;;;;;;;5.33;1.40;;;;;;;;;;512834;28;1194;-61
2022/11/17 00:39:13;;;;;;;5.67;1.50;;;;;;;;;;511327;28;1194;-61
2022/11/17 00:39:28;;;;;;;7.05;1.40;;;;;;;;;;514565;28;1136;-61
2022/11/17 00:39:43;;;;;;;6.20;1.42;;;;;;;;;;513979;28;1088;-61
2022/11/17 00:39:59;;;;;;;4.40;1.40;;;;;;;;;;515606;28;1052;-61
2022/11/17 00:40:14;;;;;;;4.97;1.50;;;;;;;;;;515445;28;1200;-61
2022/11/17 00:40:29;;;;;;;5.17;1.60;;;;;;;;;;513033;28;1194;-61
2022/11/17 00:40:44;;;;;;;4.23;1.50;;;;;;;;;;515486;28;1183;-60
2022/11/17 00:41:00;;;;;;;3.63;1.30;;;;;;;;;;514162;28;1186;-61
2022/11/17 00:41:15;;;;;;;3.83;1.25;;;;;;;;;;515109;28;1458;-61
2022/11/17 00:41:30;;;;;;;4.10;1.27;;;;;;;;;;514021;28;1539;-60
2022/11/17 00:41:46;;;;;;;4.30;1.30;;;;;;;;;;513455;28;2277;-61
2022/11/17 00:42:02;;;;;;;3.58;1.20;;;;;;;;;;513398;28;1741;-62
2022/11/17 00:42:17;;;;;;;3.77;1.20;;;;;;;;;;514256;28;1087;-61
2022/11/17 00:42:32;;;;;;;3.92;1.20;;;;;;;;;;514961;28;1119;-60
2022/11/17 00:42:48;;;;;;;3.70;1.20;;;;;;;;;;515436;28;1206;-60
2022/11/17 00:43:03;;;;;;;3.83;1.30;;;;;;;;;;512476;28;1512;-60
2022/11/17 00:43:18;;;;;;;4.32;1.40;;;;;;;;;;509374;28;1008;-60
2022/11/17 00:43:33;;;;;;;4.93;1.43;;;;;;;;;;511162;28;1080;-59
2022/11/17 00:43:49;;;;;;;4.37;1.47;;;;;;;;;;511461;28;1161;-59
2022/11/17 00:44:04;;;;;;;4.83;1.33;;;;;;;;;;511785;28;1221;-59
2022/11/17 00:44:20;;;;;;;5.07;1.30;;;;;;;;;;511056;28;1043;-60
2022/11/17 00:44:35;;;;;;;5.07;1.37;;;;;;;;;;508315;28;1237;-60
2022/11/17 00:44:50;;;;;;;5.55;1.65;;;;;;;;;;511028;28;1352;-59
2022/11/17 00:45:06;;;;;;;6.47;2.37;;;;;;;;;;509113;28;1241;-60
2022/11/17 00:45:21;;;;;;;5.78;2.42;;;;;;;;;;511045;28;1191;-60
2022/11/17 00:45:36;;;;;;;4.40;1.63;;;;;;;;;;510132;28;1163;-60
2022/11/17 00:45:51;;;;;;;5.07;1.47;;;;;;;;;;509635;28;1048;-60
2022/11/17 00:46:07;;;;;;;3.67;1.37;;;;;;;;;;508598;29;1186;-60
2022/11/17 00:46:22;;;;;;;2.72;1.35;;;;;;;;;;508636;29;1073;-60
2022/11/17 00:46:38;;;;;;;2.87;1.40;;;;;;;;;;509590;28;1046;-60
2022/11/17 00:46:53;;;;;;;5.05;1.50;;;;;;;;;;510869;28;1085;-59
2022/11/17 00:47:10;;;;;;;5.10;1.50;;;;;;;;;;511300;28;1170;-60
2022/11/17 00:47:25;;;;;;;3.67;1.40;;;;;;;;;;511407;28;2167;-60
2022/11/17 00:47:41;;;;;;;4.30;1.40;;;;;;;;;;512879;28;1119;-60
2022/11/17 00:47:56;;;;;;;5.75;1.33;;;;;;;;;;512501;28;1230;-59
2022/11/17 00:48:12;;;;;;;6.03;1.37;;;;;;;;;;512729;28;1398;-59
2022/11/17 00:48:27;;;;;;;4.13;1.27;;;;;;;;;;511845;28;1463;-59
2022/11/17 00:48:43;;;;;;;3.87;1.30;;;;;;;;;;513036;28;1240;-60
2022/11/17 00:48:58;;;;;;;3.20;1.20;;;;;;;;;;512451;28;1182;-60
2022/11/17 00:49:13;;;;;;;3.43;1.20;;;;;;;;;;512714;28;1322;-60
2022/11/17 00:49:29;;;;;;;3.80;1.30;;;;;;;;;;515009;28;999;-59
2022/11/17 00:49:44;;;;;;;3.40;1.23;;;;;;;;;;511229;28;1275;-59
2022/11/17 00:49:59;;;;;;;3.07;1.10;;;;;;;;;;511874;28;1139;-60
2022/11/17 00:50:15;;;;;;;3.50;1.17;;;;;;;;;;511324;28;1148;-60
2022/11/17 00:50:30;;;;;;;3.83;1.20;;;;;;;;;;512755;28;1198;-59
2022/11/17 00:50:45;;;;;;;3.00;1.20;;;;;;;;;;513825;28;981;-59
2022/11/17 00:51:04;;;;;;;4.80;1.27;;;;;;;;;;512938;28;1214;-59
2022/11/17 00:51:20;;;;;;;5.47;1.40;;;;;;;;;;513134;28;1143;-60
2022/11/17 00:51:36;;;;;;;5.22;1.77;;;;;;;;;;513667;28;1155;-59
2022/11/17 00:51:52;;;;;;;7.38;2.17;;;;;;;;;;515703;28;1142;-60
2022/11/17 00:52:08;;;;;;;7.07;2.30;;;;;;;;;;514929;28;1246;-60
2022/11/17 00:52:23;;;;;;;5.72;1.98;;;;;;;;;;515157;28;1100;-60
2022/11/17 00:52:39;;;;;;;4.07;1.58;;;;;;;;;;515627;28;1178;-59
2022/11/17 00:52:54;;;;;;;3.27;1.30;;;;;;;;;;515601;28;1181;-60
2022/11/17 00:53:09;;;;;;;3.73;1.23;;;;;;;;;;511525;28;1311;-60
2022/11/17 00:53:25;;;;;;;4.72;1.50;;;;;;;;;;513268;28;1151;-60
2022/11/17 00:53:40;;;;;;;4.20;1.50;;;;;;;;;;513384;28;1503;-59
2022/11/17 00:53:55;;;;;;;3.83;1.27;;;;;;;;;;513556;28;1985;-60
2022/11/17 00:54:12;;;;;;;3.85;1.20;;;;;;;;;;513176;28;1499;-60
2022/11/17 00:54:27;;;;;;;3.20;1.23;;;;;;;;;;511604;28;1137;-60
2022/11/17 00:54:43;;;;;;;4.85;1.33;;;;;;;;;;513491;28;1116;-60
2022/11/17 00:54:58;;;;;;;5.83;1.30;;;;;;;;;;513476;28;1107;-60
2022/11/17 00:55:13;;;;;;;4.97;1.33;;;;;;;;;;513155;28;1139;-59
2022/11/17 00:55:29;;;;;;;4.05;1.52;;;;;;;;;;512118;28;1116;-59
2022/11/17 00:55:44;;;;;;;4.23;1.60;;;;;;;;;;513059;28;2525;-59
2022/11/17 00:55:59;;;;;;;4.73;1.50;;;;;;;;;;512767;28;1172;-59
2022/11/17 00:56:15;;;;;;;4.43;1.40;;;;;;;;;;512600;28;1385;-60
2022/11/17 00:56:30;;;;;;;4.40;1.30;;;;;;;;;;512858;28;1088;-60
2022/11/17 00:56:46;;;;;;;4.82;1.30;;;;;;;;;;512401;28;1195;-60
2022/11/17 00:57:01;;;;;;;4.57;1.27;;;;;;;;;;513443;28;1302;-59
2022/11/17 00:57:17;;;;;;;4.90;1.30;;;;;;;;;;511826;28;1431;-59
2022/11/17 00:57:32;;;;;;;5.50;1.50;;;;;;;;;;511932;28;1065;-59
2022/11/17 00:57:47;;;;;;;5.20;1.40;;;;;;;;;;511328;28;1171;-59
2022/11/17 00:58:03;;;;;;;4.43;1.13;;;;;;;;;;508571;29;1541;-59
2022/11/17 00:58:18;;;;;;;4.03;1.23;;;;;;;;;;509176;29;1215;-59
2022/11/17 00:58:35;;;;;;;4.23;1.37;;;;;;;;;;508290;29;1196;-59
2022/11/17 00:58:51;;;;;;;4.28;1.33;;;;;;;;;;509058;28;1163;-59
2022/11/17 00:59:06;;;;;;;3.92;1.30;;;;;;;;;;508234;29;1145;-59
2022/11/17 00:59:21;;;;;;;4.57;1.30;;;;;;;;;;509308;28;1160;-60
2022/11/17 00:59:37;;;;;;;4.97;1.40;;;;;;;;;;510852;28;1131;-60
2022/11/17 00:59:52;;;;;;;4.87;1.40;;;;;;;;;;513601;28;986;-59
2022/11/17 01:00:08;;;;;;;4.33;1.33;;;;;;;;;;514192;28;1704;-59
2022/11/17 01:00:23;;;;;;;5.00;1.40;;;;;;;;;;514914;28;1183;-59
2022/11/17 01:00:39;;;;;;;5.03;1.40;;;;;;;;;;510551;28;1543;-59
2022/11/17 01:00:54;;;;;;;4.13;1.40;;;;;;;;;;513268;28;1403;-59
2022/11/17 01:01:10;;;;;;;4.43;1.30;;;;;;;;;;511694;28;1176;-60
2022/11/17 01:01:26;;;;;;;3.95;1.25;;;;;;;;;;512619;28;1502;-59
2022/11/17 01:01:42;;;;;;;3.00;1.30;;;;;;;;;;513491;28;1210;-60
2022/11/17 01:01:57;;;;;;;2.70;1.30;;;;;;;;;;513654;28;1288;-59
2022/11/17 01:02:13;;;;;;;3.93;1.27;;;;;;;;;;511036;28;1418;-59
2022/11/17 01:02:28;;;;;;;5.23;1.47;;;;;;;;;;508759;29;1049;-59
2022/11/17 01:02:43;;;;;;;5.90;1.50;;;;;;;;;;509593;28;1069;-59
2022/11/17 01:02:59;;;;;;;5.07;1.30;;;;;;;;;;507914;29;1130;-59
2022/11/17 01:03:14;;;;;;;5.30;1.43;;;;;;;;;;508364;29;1076;-59
2022/11/17 01:03:30;;;;;;;5.50;1.48;;;;;;;;;;507011;29;1251;-59
2022/11/17 01:03:46;;;;;;;4.80;1.30;;;;;;;;;;509467;29;1081;-59
2022/11/17 01:04:01;;;;;;;4.50;1.25;;;;;;;;;;509565;29;1260;-59
2022/11/17 01:04:17;;;;;;;4.53;1.20;;;;;;;;;;506989;29;1439;-59
2022/11/17 01:04:32;;;;;;;4.80;1.30;;;;;;;;;;510210;28;1129;-59
2022/11/17 01:04:47;;;;;;;4.25;1.42;;;;;;;;;;510749;28;1254;-59
2022/11/17 01:05:03;;;;;;;4.73;1.40;;;;;;;;;;513315;28;1128;-59
2022/11/17 01:05:18;;;;;;;4.30;1.30;;;;;;;;;;513290;28;1089;-59
2022/11/17 01:05:33;;;;;;;3.75;1.25;;;;;;;;;;512280;28;1164;-59
2022/11/17 01:05:49;;;;;;;3.87;1.20;;;;;;;;;;511378;28;1305;-59
2022/11/17 01:06:06;;;;;;;3.70;1.30;;;;;;;;;;508597;28;1235;-59
2022/11/17 01:06:22;;;;;;;4.38;1.30;;;;;;;;;;510916;28;1152;-59
2022/11/17 01:06:46;;;;;;;4.67;1.10;;;;;;;;;;510719;28;1191;-59
2022/11/17 01:07:01;;;;;;;4.75;1.17;;;;;;;;;;511309;28;1128;-59
2022/11/17 01:07:16;;;;;;;4.53;1.20;;;;;;;;;;508571;28;1218;-59
2022/11/17 01:07:31;;;;;;;4.97;1.20;;;;;;;;;;509926;28;1208;-59
2022/11/17 01:07:47;;;;;;;4.83;1.30;;;;;;;;;;510705;28;1251;-59
2022/11/17 01:08:02;;;;;;;2.83;1.20;;;;;;;;;;512407;28;981;-59
2022/11/17 01:08:17;;;;;;;4.88;1.20;;;;;;;;;;512721;28;1202;-59
2022/11/17 01:08:33;;;;;;;5.50;1.30;;;;;;;;;;514343;28;1123;-59
2022/11/17 01:08:48;;;;;;;4.35;1.33;;;;;;;;;;512160;28;1167;-59
2022/11/17 01:09:08;;;;;;;3.47;1.20;;;;;;;;;;513722;28;1207;-59
2022/11/17 01:09:23;;;;;;;3.70;1.20;;;;;;;;;;512264;28;1266;-59
2022/11/17 01:09:39;;;;;;;4.73;1.30;;;;;;;;;;510702;28;1242;-59
2022/11/17 01:09:54;;;;;;;5.03;1.23;;;;;;;;;;509552;28;1141;-60
2022/11/17 01:10:09;;;;;;;5.63;1.20;;;;;;;;;;508060;28;1150;-60
2022/11/17 01:10:24;;;;;;;4.87;1.20;;;;;;;;;;507940;29;1157;-60
2022/11/17 01:10:40;;;;;;;4.00;1.20;;;;;;;;;;509574;29;1030;-60
2022/11/17 01:10:55;;;;;;;4.35;1.23;;;;;;;;;;508704;29;1552;-60
2022/11/17 01:11:13;;;;;;;4.10;1.40;;;;;;;;;;509239;28;1148;-60
2022/11/17 01:11:28;;;;;;;4.05;1.17;;;;;;;;;;508075;28;1290;-60
2022/11/17 01:11:44;;;;;;;3.90;1.10;;;;;;;;;;512163;28;1139;-60
2022/11/17 01:11:59;;;;;;;4.85;1.20;;;;;;;;;;513075;28;1106;-60
2022/11/17 01:12:14;;;;;;;6.00;1.37;;;;;;;;;;512731;28;1075;-60
2022/11/17 01:12:30;;;;;;;5.20;1.40;;;;;;;;;;512137;28;1159;-60
2022/11/17 01:12:45;;;;;;;3.30;1.20;;;;;;;;;;512116;28;1056;-60
2022/11/17 01:13:01;;;;;;;2.83;1.00;;;;;;;;;;510999;28;1302;-59
2022/11/17 01:13:16;;;;;;;3.13;1.10;;;;;;;;;;511695;28;1124;-59
2022/11/17 01:13:32;;;;;;;3.10;1.20;;;;;;;;;;512712;28;1190;-60
2022/11/17 01:13:48;;;;;;;2.80;1.10;;;;;;;;;;512810;28;1914;-59
2022/11/17 01:14:03;;;;;;;2.70;1.03;;;;;;;;;;512095;28;1420;-60
2022/11/17 01:14:22;;;;;;;3.85;1.15;;;;;;;;;;513130;28;1087;-59
2022/11/17 01:14:37;;;;;;;4.53;1.40;;;;;;;;;;509119;28;1564;-60
2022/11/17 01:14:52;;;;;;;4.60;1.27;;;;;;;;;;513101;28;1020;-60
2022/11/17 01:15:08;;;;;;;5.20;1.17;;;;;;;;;;510365;28;1352;-59
2022/11/17 01:15:23;;;;;;;4.45;1.10;;;;;;;;;;510909;28;1062;-59
2022/11/17 01:15:38;;;;;;;4.33;1.10;;;;;;;;;;510761;28;1520;-60
2022/11/17 01:15:54;;;;;;;3.80;1.10;;;;;;;;;;511069;28;1222;-60
2022/11/17 01:16:20;;;;;;;2.15;1.00;;;;;;;;;;511257;28;1186;-59
2022/11/17 01:16:36;;;;;;;3.72;1.20;;;;;;;;;;512016;28;1369;-59
2022/11/17 01:16:52;;;;;;;3.73;1.37;;;;;;;;;;511905;28;1162;-59
2022/11/17 01:17:07;;;;;;;4.32;1.30;;;;;;;;;;514290;28;1155;-59
2022/11/17 01:17:23;;;;;;;4.07;1.10;;;;;;;;;;514597;28;1170;-59
2022/11/17 01:17:38;;;;;;;2.80;1.10;;;;;;;;;;515734;28;1138;-59
2022/11/17 01:17:53;;;;;;;3.27;1.20;;;;;;;;;;514734;28;1397;-60
2022/11/17 01:18:09;;;;;;;4.23;1.30;;;;;;;;;;515017;28;1757;-59
2022/11/17 01:18:26;;;;;;;3.97;1.20;;;;;;;;;;512102;28;1284;-59
2022/11/17 01:18:43;;;;;;;3.55;1.25;;;;;;;;;;513166;28;1249;-59
2022/11/17 01:19:01;;;;;;;3.45;1.10;;;;;;;;;;512007;28;1217;-59
2022/11/17 01:19:18;;;;;;;3.85;1.20;;;;;;;;;;511822;28;1916;-59
2022/11/17 01:19:33;;;;;;;4.13;1.27;;;;;;;;;;513368;28;1159;-59
2022/11/17 01:19:48;;;;;;;4.03;1.27;;;;;;;;;;513742;28;1136;-59
2022/11/17 01:20:04;;;;;;;3.53;1.03;;;;;;;;;;511140;28;1246;-60
2022/11/17 01:20:19;;;;;;;3.65;1.00;;;;;;;;;;513535;28;1083;-59
2022/11/17 01:20:35;;;;;;;3.13;1.20;;;;;;;;;;513165;28;1462;-59
2022/11/17 01:20:50;;;;;;;3.50;1.10;;;;;;;;;;513338;28;1280;-59
2022/11/17 01:21:20;;;;;;;3.70;1.00;;;;;;;;;;514006;28;1407;-59
2022/11/17 01:21:35;;;;;;;5.05;1.30;;;;;;;;;;511509;28;1163;-59
2022/11/17 01:21:50;;;;;;;4.67;1.27;;;;;;;;;;512849;28;1279;-59
2022/11/17 01:22:05;;;;;;;3.63;1.10;;;;;;;;;;513111;28;1155;-59
2022/11/17 01:22:21;;;;;;;4.10;1.17;;;;;;;;;;512768;28;1162;-59
2022/11/17 01:22:36;;;;;;;4.73;1.20;;;;;;;;;;512040;28;1198;-59
2022/11/17 01:22:54;;;;;;;3.70;1.10;;;;;;;;;;512146;28;1332;-59
2022/11/17 01:23:09;;;;;;;3.67;1.10;;;;;;;;;;513675;28;1052;-59
2022/11/17 01:23:25;;;;;;;5.38;1.25;;;;;;;;;;511945;28;1391;-59
2022/11/17 01:23:42;;;;;;;6.27;1.40;;;;;;;;;;513468;28;1426;-59
2022/11/17 01:23:59;;;;;;;4.70;1.30;;;;;;;;;;511891;28;1092;-59
2022/11/17 01:24:15;;;;;;;4.38;1.20;;;;;;;;;;512364;28;1081;-60
2022/11/17 01:24:31;;;;;;;5.50;1.20;;;;;;;;;;512080;28;1278;-59
2022/11/17 01:24:46;;;;;;;5.00;1.10;;;;;;;;;;513117;28;1210;-59
2022/11/17 01:25:02;;;;;;;3.87;1.17;;;;;;;;;;511828;28;1173;-59
2022/11/17 01:25:17;;;;;;;4.82;1.20;;;;;;;;;;514056;28;1131;-59
2022/11/17 01:25:32;;;;;;;5.20;1.20;;;;;;;;;;513967;28;1107;-59
2022/11/17 01:25:47;;;;;;;4.53;1.20;;;;;;;;;;515047;28;1447;-59
2022/11/17 01:26:05;;;;;;;4.33;1.10;;;;;;;;;;515371;28;1131;-59
2022/11/17 01:26:24;;;;;;;4.10;1.10;;;;;;;;;;515221;28;1139;-59
2022/11/17 01:26:39;;;;;;;4.35;1.30;;;;;;;;;;513817;28;1554;-59
2022/11/17 01:26:55;;;;;;;3.28;1.20;;;;;;;;;;514762;28;1143;-60
2022/11/17 01:27:10;;;;;;;2.97;1.10;;;;;;;;;;515009;28;1070;-60
2022/11/17 01:27:25;;;;;;;3.90;1.10;;;;;;;;;;513104;28;1163;-60
2022/11/17 01:27:41;;;;;;;4.93;1.37;;;;;;;;;;512863;28;1213;-59
2022/11/17 01:27:56;;;;;;;4.90;1.40;;;;;;;;;;510472;28;1882;-59
2022/11/17 01:28:11;;;;;;;4.97;1.30;;;;;;;;;;511456;28;1613;-59
2022/11/17 01:28:26;;;;;;;4.07;1.23;;;;;;;;;;509684;28;1239;-59
2022/11/17 01:28:42;;;;;;;2.67;1.10;;;;;;;;;;509707;28;1120;-59
2022/11/17 01:28:59;;;;;;;3.43;1.17;;;;;;;;;;509562;29;1187;-59
2022/11/17 01:29:16;;;;;;;3.90;1.30;;;;;;;;;;509271;29;1109;-59
2022/11/17 01:29:31;;;;;;;3.45;1.30;;;;;;;;;;508026;28;1485;-60
2022/11/17 01:29:46;;;;;;;3.23;1.23;;;;;;;;;;511933;28;1278;-59
2022/11/17 01:30:03;;;;;;;3.55;1.10;;;;;;;;;;513557;28;1063;-59
2022/11/17 01:30:18;;;;;;;4.05;1.10;;;;;;;;;;513698;28;2052;-59
2022/11/17 01:30:33;;;;;;;4.50;1.27;;;;;;;;;;513623;28;1505;-59
2022/11/17 01:30:49;;;;;;;3.97;1.57;;;;;;;;;;511581;28;1068;-59
2022/11/17 01:31:13;;;;;;;3.50;1.53;;;;;;;;;;513894;28;1639;-59
2022/11/17 01:31:34;;;;;;;3.85;1.40;;;;;;;;;;512794;28;1147;-59
2022/11/17 01:31:50;;;;;;;4.43;1.27;;;;;;;;;;513046;28;1487;-59
2022/11/17 01:32:05;;;;;;;5.20;1.30;;;;;;;;;;514109;28;1219;-59
2022/11/17 01:32:21;;;;;;;4.17;1.20;;;;;;;;;;512768;28;1377;-59
2022/11/17 01:32:36;;;;;;;4.30;1.10;;;;;;;;;;513474;28;1123;-59
2022/11/17 01:32:51;;;;;;;4.18;1.17;;;;;;;;;;511496;28;1163;-59
2022/11/17 01:33:06;;;;;;;4.30;1.30;;;;;;;;;;510522;28;1124;-59
2022/11/17 01:33:22;;;;;;;3.93;1.27;;;;;;;;;;507985;29;1188;-59
2022/11/17 01:33:37;;;;;;;4.10;1.20;;;;;;;;;;509226;29;1048;-59
2022/11/17 01:33:53;;;;;;;5.38;1.27;;;;;;;;;;509180;29;2001;-59
2022/11/17 01:34:09;;;;;;;4.53;1.20;;;;;;;;;;509359;28;1089;-59
2022/11/17 01:34:24;;;;;;;3.30;1.10;;;;;;;;;;510578;28;990;-59
2022/11/17 01:34:39;;;;;;;3.38;1.15;;;;;;;;;;510306;28;1092;-59
2022/11/17 01:34:54;;;;;;;3.57;1.10;;;;;;;;;;511220;28;1139;-59
2022/11/17 01:35:10;;;;;;;4.43;1.30;;;;;;;;;;511148;28;1064;-60
2022/11/17 01:35:25;;;;;;;5.70;1.40;;;;;;;;;;513019;28;1084;-59
2022/11/17 01:35:40;;;;;;;6.05;1.38;;;;;;;;;;510000;28;1366;-59
2022/11/17 01:36:03;;;;;;;4.40;1.20;;;;;;;;;;509365;29;1256;-59
2022/11/17 01:36:21;;;;;;;3.40;1.10;;;;;;;;;;509328;29;1384;-59
2022/11/17 01:37:20;;;;;;;4.43;1.20;;;;;;;;;;509206;29;1104;-59
2022/11/17 01:37:35;;;;;;;5.95;1.23;;;;;;;;;;510327;28;1400;-59
2022/11/17 01:37:51;;;;;;;5.00;1.20;;;;;;;;;;512136;28;1168;-59
2022/11/17 01:38:06;;;;;;;4.65;1.35;;;;;;;;;;512688;28;1248;-59
2022/11/17 01:38:21;;;;;;;4.77;1.60;;;;;;;;;;513276;28;1411;-59
2022/11/17 01:38:37;;;;;;;4.60;1.53;;;;;;;;;;512093;28;1248;-59
2022/11/17 01:38:52;;;;;;;4.57;1.33;;;;;;;;;;513326;28;1258;-59
2022/11/17 01:39:07;;;;;;;3.37;1.10;;;;;;;;;;511697;28;1425;-59
2022/11/17 01:39:24;;;;;;;3.27;1.20;;;;;;;;;;509904;28;2395;-60
2022/11/17 01:39:39;;;;;;;4.40;1.27;;;;;;;;;;510166;28;1706;-60
2022/11/17 01:39:54;;;;;;;3.13;1.10;;;;;;;;;;511440;28;1377;-59
2022/11/17 01:40:12;;;;;;;3.43;1.00;;;;;;;;;;512392;28;1163;-59
2022/11/17 01:40:28;;;;;;;5.13;1.27;;;;;;;;;;512679;28;1084;-59
2022/11/17 01:40:43;;;;;;;4.55;1.48;;;;;;;;;;511351;28;1258;-59
2022/11/17 01:41:00;;;;;;;4.37;1.30;;;;;;;;;;514476;28;1155;-59
2022/11/17 01:41:17;;;;;;;3.97;1.27;;;;;;;;;;515290;28;1033;-59
2022/11/17 01:41:32;;;;;;;3.25;1.23;;;;;;;;;;514136;28;1040;-60
2022/11/17 01:41:47;;;;;;;3.73;1.30;;;;;;;;;;513988;28;1080;-59
2022/11/17 01:42:10;;;;;;;4.57;1.40;;;;;;;;;;515291;28;1087;-60
2022/11/17 01:42:26;;;;;;;4.00;1.30;;;;;;;;;;513376;28;2167;-59
2022/11/17 01:42:41;;;;;;;3.38;1.10;;;;;;;;;;513566;28;1229;-59
2022/11/17 01:42:56;;;;;;;4.00;1.23;;;;;;;;;;512889;28;1147;-59
2022/11/17 01:43:11;;;;;;;3.77;1.40;;;;;;;;;;513420;28;1209;-59
2022/11/17 01:43:47;;;;;;;3.00;1.20;;;;;;;;;;511800;28;1244;-59
2022/11/17 01:44:40;;;;;;;3.38;1.15;;;;;;;;;;509584;28;1263;-59
2022/11/17 01:45:17;;;;;;;3.13;1.20;;;;;;;;;;508555;28;2198;-59
2022/11/17 01:45:33;;;;;;;6.10;1.58;;;;;;;;;;511962;28;1321;-60
2022/11/17 01:45:48;;;;;;;4.27;1.37;;;;;;;;;;513476;28;1147;-59
2022/11/17 01:46:05;;;;;;;3.37;1.20;;;;;;;;;;515319;28;1115;-59
2022/11/17 01:46:31;;;;;;;4.60;1.40;;;;;;;;;;515182;28;1099;-60
2022/11/17 01:46:47;;;;;;;4.78;1.30;;;;;;;;;;514910;28;1037;-59
2022/11/17 01:47:04;;;;;;;4.47;1.30;;;;;;;;;;512419;28;1201;-59
2022/11/17 01:47:20;;;;;;;5.10;1.38;;;;;;;;;;512573;28;1110;-59
2022/11/17 01:48:05;;;;;;;3.80;1.30;;;;;;;;;;512529;28;1257;-59
2022/11/17 01:48:21;;;;;;;4.85;1.40;;;;;;;;;;512054;28;1215;-59
2022/11/17 01:48:36;;;;;;;4.07;1.40;;;;;;;;;;513522;28;1142;-59
2022/11/17 01:48:55;;;;;;;5.37;1.50;;;;;;;;;;513251;28;1151;-59
2022/11/17 01:49:16;;;;;;;4.65;1.33;;;;;;;;;;514555;28;1107;-59
2022/11/17 01:49:32;;;;;;;3.35;1.23;;;;;;;;;;513407;28;1204;-59
2022/11/17 01:49:55;;;;;;;5.22;1.20;;;;;;;;;;515077;28;1383;-59
2022/11/17 01:50:32;;;;;;;4.00;1.23;;;;;;;;;;513874;28;1302;-59
2022/11/17 01:50:48;;;;;;;3.75;1.15;;;;;;;;;;512937;28;1151;-59
2022/11/17 01:51:04;;;;;;;3.85;1.10;;;;;;;;;;514645;28;1103;-59
2022/11/17 01:51:21;;;;;;;3.97;1.20;;;;;;;;;;515831;28;1056;-59
2022/11/17 01:51:41;;;;;;;3.78;1.42;;;;;;;;;;512710;28;1424;-59
2022/11/17 01:52:03;;;;;;;3.60;1.33;;;;;;;;;;512270;28;1108;-59
2022/11/17 01:52:18;;;;;;;4.05;1.23;;;;;;;;;;509995;28;1423;-59
2022/11/17 01:52:37;;;;;;;3.77;1.33;;;;;;;;;;513076;28;1021;-59